Vicksburg, Pennsylvania
Current Conditions -  °F | °C
As of 5:53 AM on Thursday 18 Dec 2014 (Local Time) from KSEG Reporting Station
Overcast Overcast  
Wind Chill: 28°   Ceiling: 3400
Heat Index: 34°   Visibility: 10mi
Dew Point: 21°   Wind: 7mph
Humidity: 59%   Direction: 280°W
Pressure: 30.07"   Gusts: NA
Location:  40.93°N, 76.98°W
Report Text: KSEG 181053Z AUTO 28006KT 10SM OVC034 01/M06 A3007 RMK AO2 SLP186 T00111061
Loading
Personal Weather Stations






























Interactive Weather Map New forecast layout! Learn more

10-Day Weather Forecast

Advertisements
Track Severe Weather on mobile